createdAt,value
2018-08-22T00:00:35.415Z,74.90
2018-08-22T00:03:03.525Z,75.30
2018-08-22T00:05:31.632Z,75.90
2018-08-22T00:07:59.783Z,77.30
2018-08-22T00:10:27.928Z,77.30
2018-08-22T00:12:56.096Z,78.50
2018-08-22T00:15:24.204Z,78.20
2018-08-22T00:17:52.340Z,77.50
2018-08-22T00:20:20.494Z,77.70
2018-08-22T00:22:48.606Z,78.80
2018-08-22T00:25:16.703Z,79.70
2018-08-22T00:27:44.833Z,79.50
2018-08-22T00:30:12.952Z,78.70
2018-08-22T00:32:41.083Z,79.50
2018-08-22T00:35:09.214Z,80.00
2018-08-22T00:37:37.300Z,80.40
2018-08-22T00:40:05.485Z,79.00
2018-08-22T00:42:33.651Z,79.20
2018-08-22T00:45:01.836Z,79.50
2018-08-22T00:47:29.950Z,79.90
2018-08-22T00:49:58.065Z,79.40
2018-08-22T00:52:26.221Z,79.60
2018-08-22T00:54:54.459Z,80.10
2018-08-22T00:57:22.597Z,80.00
2018-08-22T00:59:50.776Z,81.70
2018-08-22T01:02:19.794Z,81.20
2018-08-22T01:04:47.896Z,81.80
2018-08-22T01:07:15.995Z,80.80
2018-08-22T01:09:44.176Z,80.80
2018-08-22T01:12:12.270Z,81.00
2018-08-22T01:14:40.363Z,80.90
2018-08-22T01:17:08.474Z,80.80
2018-08-22T01:19:36.662Z,81.50
2018-08-22T01:22:04.843Z,81.80
2018-08-22T01:24:33.414Z,81.20
2018-08-22T01:27:01.599Z,81.00
2018-08-22T01:29:29.703Z,80.90
2018-08-22T01:31:57.826Z,81.70
2018-08-22T01:34:25.923Z,81.60
2018-08-22T01:36:54.040Z,81.30
2018-08-22T01:39:22.156Z,81.80
2018-08-22T01:41:50.266Z,81.70
2018-08-22T01:44:18.747Z,81.30
2018-08-22T01:46:46.863Z,81.20
2018-08-22T01:49:14.960Z,80.60
2018-08-22T01:51:43.065Z,80.80
2018-08-22T01:54:11.175Z,80.90
2018-08-22T01:56:39.307Z,80.50
2018-08-22T01:59:07.861Z,81.20
2018-08-22T02:01:35.974Z,80.50
2018-08-22T02:04:04.296Z,80.70
2018-08-22T02:06:32.407Z,80.60
2018-08-22T02:09:00.504Z,81.00
2018-08-22T02:11:28.603Z,81.10
2018-08-22T02:13:56.715Z,81.90
2018-08-22T02:16:24.848Z,81.00
2018-08-22T02:18:52.958Z,81.50
2018-08-22T02:21:21.075Z,81.90
2018-08-22T02:23:49.181Z,81.00
2018-08-22T02:26:17.294Z,81.80
2018-08-22T02:28:45.387Z,81.70
2018-08-22T02:31:13.492Z,82.10
2018-08-22T02:33:41.595Z,81.90
2018-08-22T02:36:09.700Z,82.70
2018-08-22T02:38:37.805Z,83.10
2018-08-22T02:41:05.929Z,83.50
2018-08-22T02:43:34.039Z,83.40
2018-08-22T02:46:02.153Z,82.80
2018-08-22T02:48:33.755Z,83.10
2018-08-22T02:51:01.871Z,83.00
2018-08-22T02:53:30.057Z,83.70
2018-08-22T02:55:58.140Z,83.80
2018-08-22T02:58:26.251Z,84.00
2018-08-22T03:00:54.355Z,84.00
2018-08-22T03:03:22.541Z,84.10
2018-08-22T03:05:50.671Z,84.30
2018-08-22T03:08:18.872Z,84.40
2018-08-22T03:10:47.021Z,85.60
2018-08-22T03:13:15.169Z,84.80
2018-08-22T03:15:43.289Z,84.80
2018-08-22T03:18:11.448Z,84.70
2018-08-22T03:20:39.558Z,85.00
2018-08-22T03:23:07.660Z,85.20
2018-08-22T03:25:35.779Z,85.20
2018-08-22T03:28:03.924Z,85.30
2018-08-22T03:30:32.078Z,86.00
2018-08-22T03:33:00.167Z,85.60
2018-08-22T03:35:28.287Z,85.50
2018-08-22T03:37:57.037Z,85.50
2018-08-22T03:40:25.163Z,85.80
2018-08-22T03:42:53.348Z,84.70
2018-08-22T03:45:21.581Z,86.20
2018-08-22T03:47:49.703Z,85.80
2018-08-22T03:50:17.871Z,85.50
2018-08-22T03:52:46.632Z,85.90
2018-08-22T03:55:14.779Z,86.60
2018-08-22T03:57:42.921Z,86.10
2018-08-22T04:00:11.533Z,85.70
2018-08-22T04:02:40.112Z,85.70
2018-08-22T04:05:09.236Z,86.00
2018-08-22T04:07:37.932Z,86.60
2018-08-22T04:10:06.308Z,86.40
2018-08-22T04:12:34.479Z,86.80
2018-08-22T04:15:02.605Z,86.60
2018-08-22T04:17:38.278Z,86.00
2018-08-22T04:20:07.155Z,86.10
2018-08-22T04:22:36.577Z,86.20
2018-08-22T04:25:04.937Z,86.20
2018-08-22T04:27:33.235Z,87.10
2018-08-22T04:30:01.481Z,86.20
2018-08-22T04:32:29.641Z,85.90
2018-08-22T04:34:58.045Z,85.60
2018-08-22T04:37:26.415Z,86.50
2018-08-22T04:39:54.520Z,85.00
2018-08-22T04:42:22.683Z,85.00
2018-08-22T04:44:50.821Z,85.20
2018-08-22T04:47:18.940Z,85.20
2018-08-22T04:49:47.064Z,84.90
2018-08-22T04:52:15.679Z,84.80
2018-08-22T04:54:43.800Z,84.80
2018-08-22T04:57:11.918Z,84.30
2018-08-22T04:59:40.054Z,84.70
2018-08-22T05:02:08.163Z,84.10
2018-08-22T05:04:36.282Z,84.20
2018-08-22T05:07:04.455Z,84.10
2018-08-22T05:09:32.569Z,84.00
2018-08-22T05:12:00.674Z,84.10
2018-08-22T05:14:28.848Z,83.70
2018-08-22T05:16:56.975Z,83.50
2018-08-22T05:19:25.092Z,83.90
2018-08-22T05:21:53.217Z,83.70
2018-08-22T05:24:21.423Z,83.90
2018-08-22T05:26:49.543Z,83.50
2018-08-22T05:29:17.664Z,83.80
2018-08-22T05:31:45.785Z,83.40
2018-08-22T05:34:13.968Z,83.40
2018-08-22T05:36:42.076Z,83.20
2018-08-22T05:39:12.028Z,83.20
2018-08-22T05:41:40.402Z,82.80
2018-08-22T05:44:08.688Z,83.00
2018-08-22T05:46:36.959Z,82.50
2018-08-22T05:49:05.209Z,83.40
2018-08-22T05:51:33.319Z,83.50
2018-08-22T05:54:01.439Z,83.50
2018-08-22T05:56:29.524Z,83.00
2018-08-22T05:58:57.631Z,83.60
2018-08-22T06:01:25.798Z,83.30
2018-08-22T06:03:53.904Z,83.10
2018-08-22T06:06:22.041Z,83.50
2018-08-22T06:08:50.188Z,84.00
2018-08-22T06:11:18.343Z,83.00
2018-08-22T06:13:46.468Z,83.10
2018-08-22T06:16:14.579Z,83.10
2018-08-22T06:18:42.735Z,83.00
2018-08-22T06:21:10.835Z,81.60
2018-08-22T06:23:38.944Z,82.00
2018-08-22T06:26:07.079Z,81.20
2018-08-22T06:28:35.214Z,81.00
2018-08-22T06:31:03.340Z,80.90
2018-08-22T06:33:31.519Z,79.60
2018-08-22T06:35:59.868Z,78.80
2018-08-22T06:38:27.989Z,77.00
2018-08-22T06:40:56.184Z,76.60
2018-08-22T06:43:24.340Z,76.00
2018-08-22T06:45:52.506Z,72.40
2018-08-22T06:48:20.616Z,68.30
2018-08-22T06:50:49.548Z,63.00
2018-08-22T06:53:17.698Z,59.50
2018-08-22T06:55:45.808Z,58.40
2018-08-22T06:58:13.907Z,58.70
2018-08-22T07:00:42.040Z,58.10
2018-08-22T07:03:10.292Z,57.30
2018-08-22T07:05:38.402Z,57.10
2018-08-22T07:08:06.688Z,57.40
2018-08-22T07:10:34.780Z,57.50
2018-08-22T07:13:02.872Z,57.90
2018-08-22T07:15:31.004Z,58.40
2018-08-22T07:17:59.101Z,58.60
2018-08-22T07:20:27.195Z,59.30
2018-08-22T07:22:55.293Z,59.90
2018-08-22T07:25:23.384Z,61.00
2018-08-22T07:27:51.603Z,61.40
2018-08-22T07:30:20.658Z,61.90
2018-08-22T07:32:48.760Z,62.10
2018-08-22T07:35:16.864Z,61.40
2018-08-22T07:37:44.952Z,62.00
2018-08-22T07:40:13.071Z,61.50
2018-08-22T07:42:41.520Z,60.40
2018-08-22T07:45:09.603Z,60.60
2018-08-22T07:47:37.710Z,60.20
2018-08-22T07:50:05.965Z,60.50
2018-08-22T07:52:34.000Z,59.30
2018-08-22T07:55:02.131Z,59.70
2018-08-22T07:57:30.259Z,58.80
2018-08-22T07:59:58.600Z,56.90
2018-08-22T08:02:26.680Z,54.80
2018-08-22T08:04:54.830Z,53.20
2018-08-22T08:07:22.931Z,52.30
2018-08-22T08:09:51.048Z,49.80
2018-08-22T08:12:22.429Z,49.70
2018-08-22T08:14:54.801Z,48.90
2018-08-22T08:17:22.893Z,48.60
2018-08-22T08:19:51.045Z,49.30
2018-08-22T08:22:19.192Z,49.70
2018-08-22T08:24:47.302Z,48.70
2018-08-22T08:27:15.444Z,49.30
2018-08-22T08:29:43.576Z,49.40
2018-08-22T08:32:11.694Z,49.10
2018-08-22T08:34:39.784Z,49.60
2018-08-22T08:37:07.886Z,48.20
2018-08-22T08:39:36.004Z,47.90
2018-08-22T08:42:04.129Z,46.80
2018-08-22T08:44:32.247Z,46.30
2018-08-22T08:47:00.347Z,45.80
2018-08-22T08:49:28.474Z,45.50
2018-08-22T08:51:57.949Z,46.10
2018-08-22T08:54:26.947Z,46.70
2018-08-22T08:56:55.058Z,46.90
2018-08-22T08:59:23.156Z,46.80
2018-08-22T09:01:51.330Z,46.10
2018-08-22T09:04:19.628Z,45.20
2018-08-22T09:06:48.330Z,45.50
2018-08-22T09:09:16.800Z,46.70
2018-08-22T09:12:00.434Z,47.10
2018-08-22T09:14:29.132Z,45.70
2018-08-22T09:16:58.122Z,44.10
2018-08-22T09:19:26.245Z,45.30
2018-08-22T09:21:54.426Z,45.30
2018-08-22T09:24:22.635Z,43.10
2018-08-22T09:26:50.690Z,43.30
2018-08-22T09:29:18.804Z,42.80
2018-08-22T09:31:46.913Z,42.30
2018-08-22T09:34:15.021Z,42.20
2018-08-22T09:39:12.501Z,41.90
2018-08-22T09:41:40.680Z,41.00
2018-08-22T09:44:08.879Z,41.00
2018-08-22T09:46:38.006Z,41.50
2018-08-22T09:49:06.077Z,42.10
2018-08-22T09:51:34.211Z,41.60
2018-08-22T09:54:02.337Z,42.60
2018-08-22T09:56:30.560Z,40.90
2018-08-22T09:58:58.836Z,41.50
2018-08-22T10:01:32.395Z,41.60
2018-08-22T10:04:01.524Z,41.60
2018-08-22T10:06:48.064Z,41.10
2018-08-22T10:09:22.976Z,41.30
2018-08-22T10:11:51.120Z,40.80
2018-08-22T10:14:19.557Z,41.30
2018-08-22T10:16:47.700Z,39.80
2018-08-22T10:19:15.844Z,39.90
2018-08-22T10:21:43.983Z,40.60
2018-08-22T10:24:12.129Z,41.20
2018-08-22T10:26:40.339Z,40.80
2018-08-22T10:29:08.432Z,40.10
2018-08-22T10:31:36.563Z,39.80
2018-08-22T10:34:04.708Z,39.10
2018-08-22T10:36:32.932Z,38.50
2018-08-22T10:39:01.848Z,38.10
2018-08-22T10:41:30.012Z,38.70
2018-08-22T10:43:58.204Z,38.70
2018-08-22T10:46:26.303Z,38.40
2018-08-22T10:48:54.479Z,38.10
2018-08-22T10:51:22.642Z,37.30
2018-08-22T10:53:50.823Z,38.00
2018-08-22T10:56:18.932Z,37.70
2018-08-22T10:58:47.083Z,37.60
2018-08-22T11:01:15.259Z,36.80
2018-08-22T11:03:43.408Z,38.70
2018-08-22T11:06:11.526Z,39.20
2018-08-22T11:08:39.714Z,37.80
2018-08-22T11:11:07.837Z,36.90
2018-08-22T11:13:35.972Z,35.90
2018-08-22T11:16:04.134Z,34.80
2018-08-22T11:18:32.289Z,35.10
2018-08-22T11:21:11.860Z,36.20
2018-08-22T11:23:51.664Z,36.70
2018-08-22T11:26:31.272Z,35.70
2018-08-22T11:29:10.929Z,36.70
2018-08-22T11:31:50.355Z,36.70
2018-08-22T11:34:30.227Z,34.30
2018-08-22T11:37:00.000Z,35.80
2018-08-22T11:39:28.360Z,36.20
2018-08-22T11:41:56.492Z,35.80
2018-08-22T11:44:25.668Z,35.10
2018-08-22T11:46:53.789Z,34.10
2018-08-22T11:49:21.900Z,34.20
2018-08-22T11:51:50.113Z,35.60
2018-08-22T11:54:18.445Z,35.70
2018-08-22T11:56:46.620Z,35.20
2018-08-22T11:59:14.752Z,35.40
2018-08-22T12:01:42.901Z,36.00
2018-08-22T12:04:11.023Z,35.70
2018-08-22T12:06:39.564Z,34.40
2018-08-22T12:09:09.491Z,34.90
2018-08-22T12:11:37.620Z,34.80
2018-08-22T12:14:05.999Z,35.60
2018-08-22T12:16:34.147Z,34.70
2018-08-22T12:19:02.293Z,34.80
2018-08-22T12:21:30.424Z,34.40
2018-08-22T12:23:58.745Z,34.20
2018-08-22T12:26:26.904Z,34.40
2018-08-22T12:28:55.308Z,35.10
2018-08-22T12:31:23.444Z,33.60
2018-08-22T12:33:51.886Z,35.60
2018-08-22T12:36:20.006Z,34.70
2018-08-22T12:38:48.127Z,36.10
2018-08-22T12:41:16.237Z,37.40
2018-08-22T12:43:44.395Z,37.30
2018-08-22T12:46:12.547Z,35.00
2018-08-22T12:48:41.308Z,34.30
2018-08-22T12:51:09.450Z,34.30
2018-08-22T12:53:37.599Z,35.60
2018-08-22T12:56:05.940Z,35.20
2018-08-22T12:58:34.060Z,35.80
2018-08-22T13:01:09.340Z,34.90
2018-08-22T13:03:37.485Z,35.60
2018-08-22T13:06:06.011Z,36.70
2018-08-22T13:08:34.151Z,36.20
2018-08-22T13:11:02.344Z,35.90
2018-08-22T13:13:30.722Z,34.80
2018-08-22T13:15:58.875Z,33.40
2018-08-22T13:18:27.034Z,34.20
2018-08-22T13:20:55.380Z,35.00
2018-08-22T13:23:23.480Z,33.80
2018-08-22T13:25:51.632Z,34.40
2018-08-22T13:28:19.743Z,35.30
2018-08-22T13:30:47.940Z,34.90
2018-08-22T13:33:16.111Z,36.10
2018-08-22T13:35:44.235Z,36.90
2018-08-22T13:38:12.368Z,36.80
2018-08-22T13:40:40.521Z,35.20
2018-08-22T13:43:08.650Z,34.20
2018-08-22T13:45:36.792Z,35.60
2018-08-22T13:48:04.927Z,34.80
2018-08-22T13:50:33.112Z,34.50
2018-08-22T13:53:01.235Z,34.40
2018-08-22T13:55:29.339Z,33.20
2018-08-22T13:57:57.481Z,34.70
2018-08-22T14:00:25.618Z,33.60
2018-08-22T14:02:53.707Z,33.00
2018-08-22T14:05:21.828Z,34.50
2018-08-22T14:07:49.947Z,34.50
2018-08-22T14:10:18.062Z,33.30
2018-08-22T14:12:46.212Z,33.90
2018-08-22T14:15:14.344Z,33.10
2018-08-22T14:17:42.562Z,33.50
2018-08-22T14:20:10.675Z,33.70
2018-08-22T14:22:39.580Z,34.20
2018-08-22T14:25:07.688Z,34.00
2018-08-22T14:27:35.864Z,34.20
2018-08-22T14:30:05.188Z,33.50
2018-08-22T14:32:33.288Z,34.00
2018-08-22T14:35:01.410Z,32.80
2018-08-22T14:37:29.516Z,33.30
2018-08-22T14:39:57.647Z,33.50
2018-08-22T14:42:25.779Z,32.60
2018-08-22T14:44:53.930Z,32.60
2018-08-22T14:47:21.991Z,33.50
2018-08-22T14:49:50.093Z,33.10
2018-08-22T14:52:18.203Z,33.40
2018-08-22T14:54:46.333Z,33.40
2018-08-22T14:57:14.489Z,32.70
2018-08-22T14:59:42.587Z,32.80
2018-08-22T15:02:10.725Z,32.90
2018-08-22T15:04:38.825Z,33.40
2018-08-22T15:07:07.088Z,32.30
2018-08-22T15:09:35.208Z,33.30
2018-08-22T15:12:03.346Z,32.80
2018-08-22T15:14:31.476Z,32.60
2018-08-22T15:16:59.588Z,32.20
2018-08-22T15:19:27.727Z,32.00
2018-08-22T15:21:55.840Z,31.90
2018-08-22T15:24:24.076Z,31.90
2018-08-22T15:26:52.259Z,32.30
2018-08-22T15:29:20.386Z,32.70
2018-08-22T15:31:48.508Z,32.00
2018-08-22T15:34:16.635Z,32.40
2018-08-22T15:36:44.859Z,32.30
2018-08-22T15:39:12.977Z,33.10
2018-08-22T15:41:41.115Z,33.40
2018-08-22T15:44:09.236Z,33.90
2018-08-22T15:46:37.372Z,34.00
2018-08-22T15:49:05.530Z,34.30
2018-08-22T15:51:33.683Z,34.60
2018-08-22T15:54:09.155Z,33.80
2018-08-22T15:56:38.584Z,33.80
2018-08-22T15:59:07.031Z,34.10
2018-08-22T16:01:35.145Z,35.00
2018-08-22T16:04:03.251Z,34.90
2018-08-22T16:06:31.372Z,34.40
2018-08-22T16:08:59.517Z,35.00
2018-08-22T16:11:27.694Z,34.50
2018-08-22T16:13:55.819Z,34.60
2018-08-22T16:16:23.980Z,34.80
2018-08-22T16:18:52.112Z,34.70
2018-08-22T16:21:20.288Z,34.30
2018-08-22T16:26:16.369Z,34.20
2018-08-22T16:28:53.028Z,34.60
2018-08-22T16:31:24.399Z,35.20
2018-08-22T16:33:52.585Z,35.30
2018-08-22T16:36:26.945Z,35.90
2018-08-22T16:38:55.071Z,35.10
2018-08-22T16:41:23.389Z,36.10
2018-08-22T16:43:51.484Z,35.80
2018-08-22T16:46:19.604Z,35.70
2018-08-22T16:48:49.913Z,38.10
2018-08-22T16:51:18.066Z,38.30
2018-08-22T16:53:59.687Z,38.20
2018-08-22T16:56:28.330Z,38.50
2018-08-22T16:59:12.987Z,38.30
2018-08-22T17:01:44.011Z,38.40
2018-08-22T17:04:12.067Z,38.60
2018-08-22T17:06:40.184Z,38.40
2018-08-22T17:09:09.293Z,39.10
2018-08-22T17:11:37.471Z,39.20
2018-08-22T17:14:05.658Z,39.10
2018-08-22T17:16:33.760Z,39.60
2018-08-22T17:19:01.889Z,39.80
2018-08-22T17:21:30.665Z,39.80
2018-08-22T17:23:58.797Z,39.90
2018-08-22T17:26:26.930Z,39.80
2018-08-22T17:28:56.419Z,39.60
2018-08-22T17:31:25.521Z,40.00
2018-08-22T17:33:56.064Z,40.30
2018-08-22T17:36:24.311Z,40.30
2018-08-22T17:38:53.743Z,40.60
2018-08-22T17:41:23.131Z,40.10
2018-08-22T17:44:15.561Z,40.30
2018-08-22T17:46:47.404Z,40.90
2018-08-22T17:49:15.517Z,40.30
2018-08-22T17:52:05.992Z,40.80
2018-08-22T17:54:34.320Z,41.10
2018-08-22T17:57:22.847Z,41.30
2018-08-22T17:59:51.029Z,41.30
2018-08-22T18:02:19.155Z,41.50
2018-08-22T18:04:56.267Z,41.60
2018-08-22T18:07:24.431Z,41.60
2018-08-22T18:09:52.614Z,42.40
2018-08-22T18:12:24.058Z,41.80
2018-08-22T18:14:52.180Z,42.10
2018-08-22T18:17:20.833Z,42.50
2018-08-22T18:19:49.188Z,42.60
2018-08-22T18:22:17.318Z,42.90
2018-08-22T18:24:53.305Z,43.30
2018-08-22T18:27:22.063Z,42.60
2018-08-22T18:29:50.160Z,43.20
2018-08-22T18:32:18.280Z,42.90
2018-08-22T18:35:00.333Z,43.50
2018-08-22T18:37:29.626Z,43.00
2018-08-22T18:40:09.517Z,43.40
2018-08-22T18:42:37.797Z,43.40
2018-08-22T18:52:30.924Z,43.80
2018-08-22T18:54:59.291Z,43.80
2018-08-22T18:57:27.427Z,44.00
2018-08-22T18:59:55.616Z,45.00
2018-08-22T19:02:23.738Z,45.00
2018-08-22T19:04:51.834Z,45.30
2018-08-22T19:07:19.995Z,45.00
2018-08-22T19:09:48.156Z,45.40
2018-08-22T19:12:16.257Z,45.20
2018-08-22T19:14:45.929Z,45.70
2018-08-22T19:17:15.872Z,45.70
2018-08-22T19:19:45.124Z,45.90
2018-08-22T19:22:15.254Z,46.30
2018-08-22T19:24:57.893Z,46.70
2018-08-22T19:27:26.011Z,47.90
2018-08-22T19:29:54.227Z,47.50
2018-08-22T19:32:22.336Z,47.20
2018-08-22T19:34:55.075Z,47.00
2018-08-22T19:37:24.012Z,47.60
2018-08-22T19:40:03.542Z,47.40
2018-08-22T19:42:33.159Z,47.40
2018-08-22T19:45:01.697Z,47.50
2018-08-22T19:47:30.303Z,48.10
2018-08-22T19:49:59.695Z,48.20
2018-08-22T19:52:28.163Z,48.30
2018-08-22T19:54:56.308Z,48.30
2018-08-22T19:57:30.715Z,48.60
2018-08-22T19:59:58.916Z,48.60
2018-08-22T20:02:27.002Z,48.90
2018-08-22T20:04:56.225Z,49.30
2018-08-22T20:07:24.621Z,49.20
2018-08-22T20:09:54.327Z,49.20
2018-08-22T20:12:32.583Z,49.70
2018-08-22T20:15:00.827Z,49.80
2018-08-22T20:17:29.896Z,50.20
2018-08-22T20:19:58.089Z,50.20
2018-08-22T20:22:31.529Z,50.10
2018-08-22T20:25:00.953Z,50.40
2018-08-22T20:27:29.081Z,50.90
2018-08-22T20:30:01.136Z,50.90
2018-08-22T20:32:30.078Z,51.30
2018-08-22T20:34:59.494Z,51.50
2018-08-22T20:37:27.717Z,51.30
2018-08-22T20:40:01.264Z,51.40
2018-08-22T20:42:29.516Z,51.60
2018-08-22T20:44:57.681Z,51.70
2018-08-22T20:47:25.831Z,51.80
2018-08-22T20:49:54.293Z,52.50
2018-08-22T20:52:22.460Z,52.30
2018-08-22T20:54:56.231Z,52.90
2018-08-22T20:57:25.225Z,53.50
2018-08-22T21:02:21.317Z,52.80
2018-08-22T21:04:49.420Z,53.90
2018-08-22T21:07:28.831Z,53.30
2018-08-22T21:09:56.959Z,53.20
2018-08-22T21:12:25.108Z,53.40
2018-08-22T21:14:53.215Z,53.90
2018-08-22T21:17:22.281Z,53.90
2018-08-22T21:19:50.792Z,54.20
2018-08-22T21:22:25.846Z,54.20
2018-08-22T21:24:55.548Z,54.20
2018-08-22T21:27:23.805Z,54.60
2018-08-22T21:29:52.590Z,54.40
2018-08-22T21:32:20.805Z,54.30
2018-08-22T21:34:49.183Z,54.80
2018-08-22T21:37:26.819Z,54.80
2018-08-22T21:39:55.136Z,54.70
2018-08-22T21:42:37.796Z,54.90
2018-08-22T21:45:05.939Z,55.20
2018-08-22T21:47:34.378Z,55.10
2018-08-22T21:50:02.504Z,55.70
2018-08-22T21:52:44.769Z,55.40
2018-08-22T21:55:12.991Z,55.70
2018-08-22T21:57:41.149Z,55.90
2018-08-22T22:00:15.828Z,55.40
2018-08-22T22:02:43.960Z,56.20
2018-08-22T22:05:12.517Z,56.80
2018-08-22T22:07:40.849Z,57.00
2018-08-22T22:10:11.660Z,56.80
2018-08-22T22:12:40.764Z,57.00
2018-08-22T22:15:13.388Z,57.10
2018-08-22T22:17:42.315Z,57.10
2018-08-22T22:20:10.455Z,57.40
2018-08-22T22:22:38.624Z,57.50
2018-08-22T22:25:06.996Z,57.60
2018-08-22T22:27:35.168Z,57.70
2018-08-22T22:30:05.010Z,57.90
2018-08-22T22:32:33.827Z,58.10
2018-08-22T22:35:02.492Z,58.20
2018-08-22T22:37:30.778Z,58.40
2018-08-22T22:39:58.923Z,58.50
2018-08-22T22:42:28.458Z,59.00
2018-08-22T22:44:57.867Z,59.00
2018-08-22T22:47:33.205Z,58.80
2018-08-22T22:50:01.884Z,59.30
2018-08-22T22:52:33.308Z,59.50
2018-08-22T22:55:03.143Z,59.80
2018-08-22T22:57:32.766Z,60.30
2018-08-22T23:00:01.649Z,60.40
2018-08-22T23:02:30.435Z,60.70
2018-08-22T23:04:59.335Z,61.10
2018-08-22T23:07:32.246Z,61.50
2018-08-22T23:10:01.626Z,62.60
2018-08-22T23:13:00.752Z,62.00
2018-08-22T23:15:30.023Z,62.40
2018-08-22T23:18:00.279Z,63.70
2018-08-22T23:20:45.746Z,63.60
2018-08-22T23:23:29.678Z,63.50
2018-08-22T23:26:05.472Z,64.40
2018-08-22T23:28:33.882Z,65.00
2018-08-22T23:31:02.044Z,65.30
2018-08-22T23:33:30.217Z,65.70
2018-08-22T23:35:58.354Z,65.50
2018-08-22T23:38:29.350Z,64.70
2018-08-22T23:40:58.060Z,65.00
2018-08-22T23:43:26.447Z,65.30
2018-08-22T23:45:57.208Z,65.50
2018-08-22T23:48:31.158Z,65.90
2018-08-22T23:51:16.476Z,66.40
2018-08-22T23:53:46.087Z,66.90
2018-08-22T23:56:18.768Z,67.10
2018-08-22T23:58:47.742Z,67.10
